Time,TemperatureF,DewpointF,PressureIn,WindDirection,WindDirectionDegrees,WindSpeedMPH,WindSpeedGustMPH,Humidity,HourlyPrecipIn,Conditions,Clouds,dailyrainin,SoftwareType,DateUTC
2013-02-22 00:00:00,42.0,38.7,29.90,East,93,2.0,7.0,88,0.00,,,0.00,WeatherCatV1.13B119,2013-02-22 08:00:00,
2013-02-22 00:05:00,41.9,38.6,29.90,East,80,0.0,6.0,88,0.00,,,0.00,WeatherCatV1.13B119,2013-02-22 08:05:00,
2013-02-22 00:10:00,42.0,38.4,29.90,SE,125,1.0,5.0,87,0.00,,,0.01,WeatherCatV1.13B119,2013-02-22 08:10:00,
2013-02-22 00:15:00,42.0,38.4,29.90,South,173,1.0,4.0,87,0.00,,,0.01,WeatherCatV1.13B119,2013-02-22 08:15:00,
2013-02-22 00:20:00,41.9,38.3,29.90,ENE,57,4.0,5.0,87,0.00,,,0.01,WeatherCatV1.13B119,2013-02-22 08:20:00,
2013-02-22 00:25:00,41.8,38.2,29.90,SSW,200,1.0,5.0,87,0.03,,,0.02,WeatherCatV1.13B119,2013-02-22 08:25:00,
2013-02-22 00:30:00,41.7,38.4,29.90,ESE,110,0.0,1.0,88,0.03,,,0.02,WeatherCatV1.13B119,2013-02-22 08:30:00,
2013-02-22 00:35:00,41.5,38.5,29.90,SE,142,2.0,4.0,89,0.03,,,0.02,WeatherCatV1.13B119,2013-02-22 08:35:00,
2013-02-22 00:40:00,41.3,38.6,29.90,SSE,152,3.0,5.0,90,0.03,,,0.02,WeatherCatV1.13B119,2013-02-22 08:40:00,
2013-02-22 00:45:00,41.3,38.6,29.90,ESE,114,5.0,5.0,90,0.09,,,0.03,WeatherCatV1.13B119,2013-02-22 08:45:00,
2013-02-22 00:50:00,41.1,38.4,29.90,ESE,108,2.0,4.0,90,0.14,,,0.05,WeatherCatV1.13B119,2013-02-22 08:50:00,
2013-02-22 00:55:00,40.9,38.5,29.89,ENE,67,2.0,6.0,91,0.10,,,0.05,WeatherCatV1.13B119,2013-02-22 08:55:00,
2013-02-22 01:00:00,40.7,38.3,29.89,ENE,74,2.0,2.0,91,0.16,,,0.07,WeatherCatV1.13B119,2013-02-22 09:00:00,
2013-02-22 01:05:00,40.6,38.2,29.89,ESE,104,3.0,5.0,91,0.09,,,0.07,WeatherCatV1.13B119,2013-02-22 09:05:00,
2013-02-22 01:10:00,40.4,38.0,29.88,ENE,62,3.0,4.0,91,0.08,,,0.08,WeatherCatV1.13B119,2013-02-22 09:10:00,
2013-02-22 01:15:00,40.3,38.2,29.88,East,91,0.0,3.0,92,0.09,,,0.09,WeatherCatV1.13B119,2013-02-22 09:15:00,
2013-02-22 01:20:00,40.1,38.0,29.88,ENE,69,1.0,2.0,92,0.05,,,0.09,WeatherCatV1.13B119,2013-02-22 09:20:00,
2013-02-22 01:25:00,40.1,38.0,29.88,NW,316,0.0,1.0,92,0.03,,,0.09,WeatherCatV1.13B119,2013-02-22 09:25:00,
2013-02-22 01:30:00,39.9,38.0,29.88,SE,132,0.0,1.0,93,0.03,,,0.09,WeatherCatV1.13B119,2013-02-22 09:30:00,
2013-02-22 01:35:00,39.8,37.7,29.88,NW,314,0.0,3.0,92,0.03,,,0.09,WeatherCatV1.13B119,2013-02-22 09:35:00,
2013-02-22 01:40:00,39.7,37.6,29.88,East,84,1.0,4.0,92,0.03,,,0.09,WeatherCatV1.13B119,2013-02-22 09:40:00,
2013-02-22 01:45:00,39.6,37.5,29.88,ENE,60,3.0,6.0,92,0.00,,,0.09,WeatherCatV1.13B119,2013-02-22 09:45:00,
2013-02-22 01:50:00,39.6,37.5,29.87,East,99,0.0,3.0,92,0.00,,,0.09,WeatherCatV1.13B119,2013-02-22 09:50:00,
2013-02-22 01:55:00,39.5,37.4,29.87,ENE,72,0.0,6.0,92,0.00,,,0.09,WeatherCatV1.13B119,2013-02-22 09:55:00,
2013-02-22 02:00:00,39.6,37.2,29.87,ENE,74,1.0,7.0,91,0.00,,,0.09,WeatherCatV1.13B119,2013-02-22 10:00:00,
2013-02-22 02:05:00,39.7,37.3,29.87,SE,129,2.0,3.0,91,0.00,,,0.09,WeatherCatV1.13B119,2013-02-22 10:05:00,
2013-02-22 02:10:00,39.8,37.1,29.86,East,81,1.0,5.0,90,0.00,,,0.09,WeatherCatV1.13B119,2013-02-22 10:10:00,
2013-02-22 02:15:00,40.0,37.3,29.86,ENE,78,2.0,5.0,90,0.00,,,0.09,WeatherCatV1.13B119,2013-02-22 10:15:00,
2013-02-22 02:20:00,40.1,37.4,29.85,ESE,104,2.0,7.0,90,0.00,,,0.09,WeatherCatV1.13B119,2013-02-22 10:20:00,
2013-02-22 02:25:00,40.1,37.4,29.85,East,84,6.0,8.0,90,0.00,,,0.10,WeatherCatV1.13B119,2013-02-22 10:25:00,
2013-02-22 02:30:00,40.3,37.3,29.85,NE,54,3.0,9.0,89,0.00,,,0.10,WeatherCatV1.13B119,2013-02-22 10:30:00,
2013-02-22 02:35:00,40.3,37.6,29.85,ENE,63,3.0,6.0,90,0.00,,,0.10,WeatherCatV1.13B119,2013-02-22 10:35:00,
2013-02-22 02:40:00,40.3,37.3,29.84,SE,136,5.0,5.0,89,0.00,,,0.10,WeatherCatV1.13B119,2013-02-22 10:40:00,
2013-02-22 02:45:00,40.3,37.3,29.84,ESE,112,5.0,6.0,89,0.00,,,0.11,WeatherCatV1.13B119,2013-02-22 10:45:00,
2013-02-22 02:50:00,40.2,37.2,29.84,East,80,2.0,12.0,89,0.00,,,0.11,WeatherCatV1.13B119,2013-02-22 10:50:00,
2013-02-22 02:55:00,40.1,37.4,29.84,SE,133,6.0,8.0,90,0.04,,,0.12,WeatherCatV1.13B119,2013-02-22 10:55:00,
2013-02-22 03:00:00,40.0,37.3,29.83,East,101,6.0,8.0,90,0.04,,,0.12,WeatherCatV1.13B119,2013-02-22 11:00:00,
2013-02-22 03:05:00,39.9,37.2,29.82,ENE,77,6.0,11.0,90,0.04,,,0.12,WeatherCatV1.13B119,2013-02-22 11:05:00,
2013-02-22 03:10:00,39.8,37.1,29.82,ESE,117,8.0,12.0,90,0.04,,,0.13,WeatherCatV1.13B119,2013-02-22 11:10:00,
2013-02-22 03:15:00,39.8,37.1,29.82,ENE,70,8.0,9.0,90,0.04,,,0.13,WeatherCatV1.13B119,2013-02-22 11:15:00,
2013-02-22 03:20:00,39.8,37.1,29.81,ESE,102,4.0,14.0,90,0.05,,,0.13,WeatherCatV1.13B119,2013-02-22 11:20:00,
2013-02-22 03:25:00,39.8,37.1,29.81,ESE,113,6.0,14.0,90,0.05,,,0.13,WeatherCatV1.13B119,2013-02-22 11:25:00,
2013-02-22 03:30:00,39.8,37.1,29.80,ENE,68,3.0,15.0,90,0.05,,,0.14,WeatherCatV1.13B119,2013-02-22 11:30:00,
2013-02-22 03:35:00,39.8,37.1,29.81,SE,137,6.0,8.0,90,0.05,,,0.14,WeatherCatV1.13B119,2013-02-22 11:35:00,
2013-02-22 03:40:00,39.7,37.3,29.81,East,96,9.0,17.0,91,0.03,,,0.14,WeatherCatV1.13B119,2013-02-22 11:40:00,
2013-02-22 03:45:00,39.6,37.2,29.80,East,89,5.0,14.0,91,0.03,,,0.15,WeatherCatV1.13B119,2013-02-22 11:45:00,
2013-02-22 03:50:00,39.5,37.1,29.80,ESE,103,5.0,14.0,91,0.03,,,0.15,WeatherCatV1.13B119,2013-02-22 11:50:00,
2013-02-22 03:55:00,39.6,36.9,29.80,ESE,110,14.0,18.0,90,0.03,,,0.15,WeatherCatV1.13B119,2013-02-22 11:55:00,
2013-02-22 04:00:00,39.6,36.9,29.79,ENE,78,5.0,17.0,90,0.00,,,0.15,WeatherCatV1.13B119,2013-02-22 12:00:00,
2013-02-22 04:05:00,39.6,37.2,29.79,SE,132,8.0,16.0,91,0.00,,,0.15,WeatherCatV1.13B119,2013-02-22 12:05:00,
2013-02-22 04:10:00,39.6,37.2,29.78,SE,135,4.0,13.0,91,0.00,,,0.15,WeatherCatV1.13B119,2013-02-22 12:10:00,
2013-02-22 04:15:00,39.7,37.3,29.78,NE,53,12.0,13.0,91,0.00,,,0.15,WeatherCatV1.13B119,2013-02-22 12:15:00,
2013-02-22 04:20:00,39.8,37.4,29.78,ESE,103,15.0,15.0,91,0.00,,,0.15,WeatherCatV1.13B119,2013-02-22 12:20:00,
2013-02-22 04:25:00,39.8,37.4,29.78,ESE,120,4.0,15.0,91,0.00,,,0.15,WeatherCatV1.13B119,2013-02-22 12:25:00,
2013-02-22 04:30:00,39.9,37.5,29.77,SE,136,3.0,7.0,91,0.00,,,0.15,WeatherCatV1.13B119,2013-02-22 12:30:00,
2013-02-22 04:35:00,39.9,37.5,29.77,SSE,153,2.0,10.0,91,0.00,,,0.15,WeatherCatV1.13B119,2013-02-22 12:35:00,
2013-02-22 04:40:00,39.9,37.5,29.77,South,183,8.0,14.0,91,0.00,,,0.15,WeatherCatV1.13B119,2013-02-22 12:40:00,
2013-02-22 04:45:00,40.0,37.6,29.76,ESE,103,8.0,14.0,91,0.00,,,0.15,WeatherCatV1.13B119,2013-02-22 12:45:00,
2013-02-22 04:50:00,39.9,37.5,29.75,SE,139,4.0,13.0,91,0.00,,,0.16,WeatherCatV1.13B119,2013-02-22 12:50:00,
2013-02-22 04:55:00,39.9,37.5,29.75,SE,134,7.0,13.0,91,0.00,,,0.16,WeatherCatV1.13B119,2013-02-22 12:55:00,
2013-02-22 05:00:00,39.8,37.4,29.75,SE,139,13.0,13.0,91,0.00,,,0.16,WeatherCatV1.13B119,2013-02-22 13:00:00,
2013-02-22 05:05:00,39.8,37.4,29.74,SE,143,9.0,12.0,91,0.00,,,0.16,WeatherCatV1.13B119,2013-02-22 13:05:00,
2013-02-22 05:10:00,39.7,37.3,29.74,NE,56,8.0,15.0,91,0.00,,,0.16,WeatherCatV1.13B119,2013-02-22 13:10:00,
2013-02-22 05:15:00,39.5,37.1,29.73,East,92,7.0,12.0,91,0.00,,,0.16,WeatherCatV1.13B119,2013-02-22 13:15:00,
2013-02-22 05:20:00,39.4,37.0,29.73,ESE,109,5.0,11.0,91,0.00,,,0.17,WeatherCatV1.13B119,2013-02-22 13:20:00,
2013-02-22 05:25:00,39.5,37.1,29.73,SE,132,11.0,17.0,91,0.00,,,0.17,WeatherCatV1.13B119,2013-02-22 13:25:00,
2013-02-22 05:30:00,39.6,37.2,29.72,SSE,164,10.0,19.0,91,0.00,,,0.17,WeatherCatV1.13B119,2013-02-22 13:30:00,
2013-02-22 05:35:00,39.6,37.2,29.72,ESE,109,9.0,16.0,91,0.00,,,0.17,WeatherCatV1.13B119,2013-02-22 13:35:00,
2013-02-22 05:40:00,39.6,37.2,29.72,ESE,113,19.0,19.0,91,0.00,,,0.17,WeatherCatV1.13B119,2013-02-22 13:40:00,
2013-02-22 05:45:00,39.7,37.3,29.72,East,101,14.0,20.0,91,0.00,,,0.17,WeatherCatV1.13B119,2013-02-22 13:45:00,
2013-02-22 05:50:00,39.8,37.1,29.73,SSW,198,3.0,13.0,90,0.00,,,0.17,WeatherCatV1.13B119,2013-02-22 13:50:00,
2013-02-22 05:55:00,39.8,37.1,29.73,ESE,108,9.0,11.0,90,0.00,,,0.17,WeatherCatV1.13B119,2013-02-22 13:55:00,
2013-02-22 06:00:00,39.8,37.1,29.73,ESE,122,6.0,18.0,90,0.00,,,0.17,WeatherCatV1.13B119,2013-02-22 14:00:00,
2013-02-22 06:05:00,39.9,37.2,29.73,SSE,155,7.0,16.0,90,0.00,,,0.17,WeatherCatV1.13B119,2013-02-22 14:05:00,
2013-02-22 06:10:00,39.9,37.2,29.72,SE,140,5.0,12.0,90,0.00,,,0.17,WeatherCatV1.13B119,2013-02-22 14:10:00,
2013-02-22 06:15:00,39.8,37.1,29.72,SE,129,7.0,15.0,90,0.00,,,0.17,WeatherCatV1.13B119,2013-02-22 14:15:00,
2013-02-22 06:20:00,39.8,37.4,29.71,ESE,118,16.0,16.0,91,0.00,,,0.17,WeatherCatV1.13B119,2013-02-22 14:20:00,
2013-02-22 06:25:00,39.7,37.3,29.70,ENE,76,6.0,17.0,91,0.00,,,0.17,WeatherCatV1.13B119,2013-02-22 14:25:00,
2013-02-22 06:30:00,39.7,37.3,29.70,SE,140,13.0,17.0,91,0.00,,,0.17,WeatherCatV1.13B119,2013-02-22 14:30:00,
2013-02-22 06:35:00,39.7,37.3,29.69,ESE,120,3.0,11.0,91,0.00,,,0.17,WeatherCatV1.13B119,2013-02-22 14:35:00,
2013-02-22 06:40:00,39.7,37.3,29.68,NE,47,18.0,18.0,91,0.00,,,0.17,WeatherCatV1.13B119,2013-02-22 14:40:00,
2013-02-22 06:45:00,39.7,37.3,29.67,ESE,105,11.0,25.0,91,0.00,,,0.17,WeatherCatV1.13B119,2013-02-22 14:45:00,
2013-02-22 06:50:00,39.9,37.5,29.67,NE,39,4.0,21.0,91,0.00,,,0.17,WeatherCatV1.13B119,2013-02-22 14:50:00,
2013-02-22 06:55:00,40.1,37.7,29.66,SE,132,10.0,26.0,91,0.00,,,0.17,WeatherCatV1.13B119,2013-02-22 14:55:00,
2013-02-22 07:00:00,40.3,37.6,29.65,ENE,65,7.0,20.0,90,0.00,,,0.17,WeatherCatV1.13B119,2013-02-22 15:00:00,
2013-02-22 07:05:00,40.5,37.8,29.65,South,176,12.0,22.0,90,0.00,,,0.17,WeatherCatV1.13B119,2013-02-22 15:05:00,
2013-02-22 07:10:00,40.7,38.0,29.65,NE,56,4.0,21.0,90,0.00,,,0.17,WeatherCatV1.13B119,2013-02-22 15:10:00,
2013-02-22 07:15:00,40.8,37.8,29.65,SE,125,12.0,21.0,89,0.00,,,0.17,WeatherCatV1.13B119,2013-02-22 15:15:00,
2013-02-22 07:20:00,40.9,37.9,29.65,SE,133,11.0,19.0,89,0.00,,,0.17,WeatherCatV1.13B119,2013-02-22 15:20:00,
2013-02-22 07:25:00,40.9,38.2,29.66,ESE,117,18.0,25.0,90,0.00,,,0.17,WeatherCatV1.13B119,2013-02-22 15:25:00,
2013-02-22 07:30:00,40.8,38.1,29.66,ESE,102,10.0,18.0,90,0.00,,,0.17,WeatherCatV1.13B119,2013-02-22 15:30:00,
2013-02-22 07:35:00,40.8,38.4,29.65,SSE,150,18.0,23.0,91,0.00,,,0.17,WeatherCatV1.13B119,2013-02-22 15:35:00,
2013-02-22 07:40:00,40.9,38.5,29.64,SSE,160,17.0,21.0,91,0.00,,,0.17,WeatherCatV1.13B119,2013-02-22 15:40:00,
2013-02-22 07:45:00,40.9,38.5,29.64,SSE,156,4.0,17.0,91,0.00,,,0.17,WeatherCatV1.13B119,2013-02-22 15:45:00,
2013-02-22 07:50:00,40.8,38.7,29.64,SE,129,8.0,18.0,92,0.00,,,0.18,WeatherCatV1.13B119,2013-02-22 15:50:00,
2013-02-22 07:55:00,40.7,38.6,29.64,ENE,65,6.0,20.0,92,0.00,,,0.18,WeatherCatV1.13B119,2013-02-22 15:55:00,
2013-02-22 08:00:00,40.7,38.6,29.64,ESE,114,5.0,15.0,92,0.05,,,0.19,WeatherCatV1.13B119,2013-02-22 16:00:00,
2013-02-22 08:05:00,40.7,38.6,29.63,ESE,117,16.0,21.0,92,0.05,,,0.19,WeatherCatV1.13B119,2013-02-22 16:05:00,
2013-02-22 08:10:00,40.7,38.6,29.62,SE,136,8.0,21.0,92,0.05,,,0.20,WeatherCatV1.13B119,2013-02-22 16:10:00,
2013-02-22 08:15:00,40.7,38.6,29.62,SE,136,14.0,23.0,92,0.05,,,0.20,WeatherCatV1.13B119,2013-02-22 16:15:00,
2013-02-22 08:20:00,40.7,38.6,29.61,SE,137,13.0,22.0,92,0.06,,,0.20,WeatherCatV1.13B119,2013-02-22 16:20:00,
2013-02-22 08:25:00,40.7,38.6,29.61,SE,131,7.0,22.0,92,0.08,,,0.21,WeatherCatV1.13B119,2013-02-22 16:25:00,
2013-02-22 08:30:00,40.6,38.7,29.60,ESE,108,14.0,19.0,93,0.09,,,0.22,WeatherCatV1.13B119,2013-02-22 16:30:00,
2013-02-22 08:35:00,40.7,38.8,29.60,ESE,113,15.0,23.0,93,0.09,,,0.23,WeatherCatV1.13B119,2013-02-22 16:35:00,
2013-02-22 08:40:00,40.7,38.8,29.59,ENE,78,10.0,26.0,93,0.07,,,0.24,WeatherCatV1.13B119,2013-02-22 16:40:00,
2013-02-22 08:45:00,40.7,38.8,29.60,ESE,107,8.0,21.0,93,0.07,,,0.24,WeatherCatV1.13B119,2013-02-22 16:45:00,
2013-02-22 08:50:00,40.8,38.9,29.59,ESE,122,11.0,27.0,93,0.06,,,0.24,WeatherCatV1.13B119,2013-02-22 16:50:00,
2013-02-22 08:55:00,40.9,39.0,29.59,SE,129,15.0,15.0,93,0.09,,,0.25,WeatherCatV1.13B119,2013-02-22 16:55:00,
2013-02-22 09:00:00,40.9,39.0,29.59,East,100,7.0,18.0,93,0.16,,,0.27,WeatherCatV1.13B119,2013-02-22 17:00:00,
2013-02-22 09:05:00,40.9,39.0,29.60,ESE,108,14.0,22.0,93,0.13,,,0.28,WeatherCatV1.13B119,2013-02-22 17:05:00,
2013-02-22 09:10:00,40.9,39.0,29.60,ESE,117,12.0,25.0,93,0.12,,,0.28,WeatherCatV1.13B119,2013-02-22 17:10:00,
2013-02-22 09:15:00,40.9,39.0,29.59,SE,139,8.0,17.0,93,0.12,,,0.29,WeatherCatV1.13B119,2013-02-22 17:15:00,
2013-02-22 09:20:00,40.9,39.0,29.59,SE,140,6.0,15.0,93,0.09,,,0.30,WeatherCatV1.13B119,2013-02-22 17:20:00,
2013-02-22 09:25:00,40.8,38.9,29.59,ESE,114,7.0,15.0,93,0.11,,,0.31,WeatherCatV1.13B119,2013-02-22 17:25:00,
2013-02-22 09:30:00,40.7,38.8,29.58,SE,140,16.0,18.0,93,0.13,,,0.32,WeatherCatV1.13B119,2013-02-22 17:30:00,
2013-02-22 09:35:00,40.7,38.8,29.58,SE,135,4.0,25.0,93,0.13,,,0.33,WeatherCatV1.13B119,2013-02-22 17:35:00,
2013-02-22 09:40:00,40.6,38.7,29.58,SE,139,13.0,22.0,93,0.10,,,0.34,WeatherCatV1.13B119,2013-02-22 17:40:00,
2013-02-22 09:45:00,40.5,38.6,29.57,SE,129,5.0,13.0,93,0.09,,,0.35,WeatherCatV1.13B119,2013-02-22 17:45:00,
2013-02-22 09:50:00,40.4,38.5,29.57,East,95,5.0,12.0,93,0.06,,,0.35,WeatherCatV1.13B119,2013-02-22 17:50:00,
2013-02-22 09:55:00,40.4,38.5,29.57,SSE,151,15.0,21.0,93,0.06,,,0.35,WeatherCatV1.13B119,2013-02-22 17:55:00,
2013-02-22 10:00:00,40.5,38.6,29.57,SE,132,15.0,16.0,93,0.04,,,0.35,WeatherCatV1.13B119,2013-02-22 18:00:00,
2013-02-22 10:05:00,40.6,38.7,29.56,South,169,17.0,17.0,93,0.03,,,0.35,WeatherCatV1.13B119,2013-02-22 18:05:00,
2013-02-22 10:10:00,40.5,38.6,29.56,SE,139,6.0,17.0,93,0.00,,,0.35,WeatherCatV1.13B119,2013-02-22 18:10:00,
2013-02-22 10:15:00,40.5,38.4,29.56,ENE,64,19.0,19.0,92,0.00,,,0.35,WeatherCatV1.13B119,2013-02-22 18:15:00,
2013-02-22 10:20:00,40.5,38.4,29.56,ENE,70,9.0,14.0,92,0.00,,,0.35,WeatherCatV1.13B119,2013-02-22 18:20:00,
2013-02-22 10:25:00,40.5,38.6,29.55,SE,125,5.0,12.0,93,0.00,,,0.36,WeatherCatV1.13B119,2013-02-22 18:25:00,
2013-02-22 10:30:00,40.5,38.6,29.55,SSE,147,12.0,13.0,93,0.00,,,0.36,WeatherCatV1.13B119,2013-02-22 18:30:00,
2013-02-22 10:35:00,40.5,38.9,29.55,SE,146,8.0,15.0,94,0.05,,,0.37,WeatherCatV1.13B119,2013-02-22 18:35:00,
2013-02-22 10:40:00,40.6,38.7,29.55,East,91,9.0,17.0,93,0.05,,,0.37,WeatherCatV1.13B119,2013-02-22 18:40:00,
2013-02-22 10:45:00,40.7,38.8,29.55,ESE,123,6.0,12.0,93,0.04,,,0.37,WeatherCatV1.13B119,2013-02-22 18:45:00,
2013-02-22 10:50:00,40.9,39.0,29.54,SE,134,12.0,15.0,93,0.03,,,0.38,WeatherCatV1.13B119,2013-02-22 18:50:00,
2013-02-22 10:55:00,41.0,39.1,29.53,ESE,113,11.0,22.0,93,0.03,,,0.38,WeatherCatV1.13B119,2013-02-22 18:55:00,
2013-02-22 11:00:00,41.1,39.2,29.53,SE,131,12.0,16.0,93,0.03,,,0.38,WeatherCatV1.13B119,2013-02-22 19:00:00,
2013-02-22 11:05:00,41.3,39.4,29.53,ESE,115,13.0,17.0,93,0.03,,,0.39,WeatherCatV1.13B119,2013-02-22 19:05:00,
2013-02-22 11:10:00,41.3,39.4,29.53,South,179,12.0,13.0,93,0.03,,,0.39,WeatherCatV1.13B119,2013-02-22 19:10:00,
2013-02-22 11:15:00,41.4,39.5,29.53,SSE,152,9.0,13.0,93,0.03,,,0.39,WeatherCatV1.13B119,2013-02-22 19:15:00,
2013-02-22 11:20:00,41.5,39.6,29.53,SE,137,10.0,19.0,93,0.00,,,0.39,WeatherCatV1.13B119,2013-02-22 19:20:00,
2013-02-22 11:25:00,41.7,39.8,29.53,SE,131,10.0,16.0,93,0.00,,,0.39,WeatherCatV1.13B119,2013-02-22 19:25:00,
2013-02-22 11:30:00,41.8,39.6,29.53,SE,129,9.0,17.0,92,0.00,,,0.39,WeatherCatV1.13B119,2013-02-22 19:30:00,
2013-02-22 11:35:00,42.0,39.8,29.52,SE,145,9.0,13.0,92,0.00,,,0.39,WeatherCatV1.13B119,2013-02-22 19:35:00,
2013-02-22 11:40:00,42.0,39.8,29.52,ENE,62,8.0,18.0,92,0.00,,,0.39,WeatherCatV1.13B119,2013-02-22 19:40:00,
2013-02-22 11:45:00,42.1,39.9,29.51,SE,139,8.0,19.0,92,0.00,,,0.39,WeatherCatV1.13B119,2013-02-22 19:45:00,
2013-02-22 11:50:00,42.3,40.1,29.52,SE,128,8.0,20.0,92,0.00,,,0.39,WeatherCatV1.13B119,2013-02-22 19:50:00,
2013-02-22 11:55:00,42.4,40.2,29.51,SE,146,11.0,19.0,92,0.00,,,0.39,WeatherCatV1.13B119,2013-02-22 19:55:00,
2013-02-22 12:00:00,42.4,40.0,29.51,South,176,6.0,19.0,91,0.00,,,0.39,WeatherCatV1.13B119,2013-02-22 20:00:00,
2013-02-22 12:05:00,42.4,40.2,29.51,East,82,5.0,18.0,92,0.00,,,0.39,WeatherCatV1.13B119,2013-02-22 20:05:00,
2013-02-22 12:10:00,42.4,40.2,29.51,ESE,110,13.0,18.0,92,0.00,,,0.39,WeatherCatV1.13B119,2013-02-22 20:10:00,
2013-02-22 12:15:00,42.5,40.3,29.50,East,94,7.0,17.0,92,0.00,,,0.39,WeatherCatV1.13B119,2013-02-22 20:15:00,
2013-02-22 12:20:00,42.6,40.4,29.51,South,176,9.0,18.0,92,0.00,,,0.39,WeatherCatV1.13B119,2013-02-22 20:20:00,
2013-02-22 12:25:00,42.7,40.5,29.51,ESE,119,12.0,27.0,92,0.00,,,0.39,WeatherCatV1.13B119,2013-02-22 20:25:00,
2013-02-22 12:30:00,42.8,40.6,29.50,South,169,3.0,19.0,92,0.00,,,0.39,WeatherCatV1.13B119,2013-02-22 20:30:00,
2013-02-22 12:35:00,43.0,40.8,29.50,South,169,8.0,20.0,92,0.00,,,0.39,WeatherCatV1.13B119,2013-02-22 20:35:00,
2013-02-22 12:40:00,42.9,40.7,29.49,SSE,159,10.0,18.0,92,0.00,,,0.39,WeatherCatV1.13B119,2013-02-22 20:40:00,
2013-02-22 12:45:00,42.8,40.6,29.50,ESE,116,12.0,26.0,92,0.00,,,0.39,WeatherCatV1.13B119,2013-02-22 20:45:00,
2013-02-22 12:50:00,42.9,40.7,29.49,SSE,152,6.0,24.0,92,0.00,,,0.39,WeatherCatV1.13B119,2013-02-22 20:50:00,
2013-02-22 12:55:00,43.2,41.0,29.49,SE,125,17.0,21.0,92,0.00,,,0.39,WeatherCatV1.13B119,2013-02-22 20:55:00,
2013-02-22 13:00:00,43.3,40.9,29.49,ESE,105,12.0,15.0,91,0.00,,,0.39,WeatherCatV1.13B119,2013-02-22 21:00:00,
2013-02-22 13:05:00,43.3,40.9,29.49,SE,133,10.0,21.0,91,0.00,,,0.39,WeatherCatV1.13B119,2013-02-22 21:05:00,
2013-02-22 13:10:00,43.2,41.0,29.50,ESE,112,5.0,9.0,92,0.00,,,0.39,WeatherCatV1.13B119,2013-02-22 21:10:00,
2013-02-22 13:15:00,43.2,41.0,29.48,SE,131,7.0,17.0,92,0.00,,,0.39,WeatherCatV1.13B119,2013-02-22 21:15:00,
2013-02-22 13:20:00,43.4,41.2,29.49,ESE,123,7.0,9.0,92,0.00,,,0.39,WeatherCatV1.13B119,2013-02-22 21:20:00,
2013-02-22 13:25:00,43.6,41.4,29.49,East,98,7.0,14.0,92,0.00,,,0.39,WeatherCatV1.13B119,2013-02-22 21:25:00,
2013-02-22 13:30:00,43.9,41.7,29.49,SE,143,7.0,13.0,92,0.00,,,0.39,WeatherCatV1.13B119,2013-02-22 21:30:00,
2013-02-22 13:35:00,43.8,41.6,29.49,ESE,115,14.0,14.0,92,0.00,,,0.39,WeatherCatV1.13B119,2013-02-22 21:35:00,
2013-02-22 13:40:00,43.7,41.5,29.49,SE,135,7.0,13.0,92,0.00,,,0.39,WeatherCatV1.13B119,2013-02-22 21:40:00,
2013-02-22 13:45:00,44.0,41.8,29.48,SSE,160,4.0,15.0,92,0.00,,,0.39,WeatherCatV1.13B119,2013-02-22 21:45:00,
2013-02-22 13:50:00,44.8,42.6,29.48,East,94,4.0,15.0,92,0.00,,,0.39,WeatherCatV1.13B119,2013-02-22 21:50:00,
2013-02-22 13:55:00,45.0,42.2,29.48,ESE,104,6.0,11.0,90,0.00,,,0.39,WeatherCatV1.13B119,2013-02-22 21:55:00,
2013-02-22 14:00:00,45.0,42.2,29.48,ENE,77,8.0,8.0,90,0.00,,,0.39,WeatherCatV1.13B119,2013-02-22 22:00:00,
2013-02-22 14:05:00,45.1,42.3,29.48,NE,53,1.0,10.0,90,0.00,,,0.39,WeatherCatV1.13B119,2013-02-22 22:05:00,
2013-02-22 14:10:00,45.1,42.1,29.48,SW,219,2.0,5.0,89,0.00,,,0.39,WeatherCatV1.13B119,2013-02-22 22:10:00,
2013-02-22 14:15:00,45.1,42.1,29.48,ESE,110,3.0,8.0,89,0.00,,,0.39,WeatherCatV1.13B119,2013-02-22 22:15:00,
2013-02-22 14:20:00,45.1,42.1,29.48,East,94,4.0,9.0,89,0.00,,,0.39,WeatherCatV1.13B119,2013-02-22 22:20:00,
2013-02-22 14:25:00,45.1,42.3,29.49,SW,233,4.0,5.0,90,0.00,,,0.39,WeatherCatV1.13B119,2013-02-22 22:25:00,
2013-02-22 14:30:00,45.3,42.5,29.49,SSE,165,3.0,5.0,90,0.00,,,0.39,WeatherCatV1.13B119,2013-02-22 22:30:00,
2013-02-22 14:35:00,46.0,43.2,29.49,SSE,163,3.0,8.0,90,0.00,,,0.39,WeatherCatV1.13B119,2013-02-22 22:35:00,
2013-02-22 14:40:00,46.5,42.8,29.49,SE,139,6.0,8.0,87,0.00,,,0.39,WeatherCatV1.13B119,2013-02-22 22:40:00,
2013-02-22 14:45:00,46.9,42.9,29.49,ESE,116,4.0,10.0,86,0.00,,,0.39,WeatherCatV1.13B119,2013-02-22 22:45:00,
2013-02-22 14:50:00,47.3,41.8,29.49,WSW,240,9.0,10.0,81,0.00,,,0.39,WeatherCatV1.13B119,2013-02-22 22:50:00,
2013-02-22 14:55:00,47.7,41.5,29.49,WSW,248,8.0,10.0,79,0.00,,,0.39,WeatherCatV1.13B119,2013-02-22 22:55:00,
2013-02-22 15:00:00,48.0,40.5,29.49,SW,229,3.0,8.0,75,0.00,,,0.39,WeatherCatV1.13B119,2013-02-22 23:00:00,
2013-02-22 15:05:00,48.0,40.5,29.49,SSE,164,4.0,7.0,75,0.00,,,0.39,WeatherCatV1.13B119,2013-02-22 23:05:00,
2013-02-22 15:10:00,48.0,39.8,29.50,NW,319,4.0,5.0,73,0.00,,,0.39,WeatherCatV1.13B119,2013-02-22 23:10:00,
2013-02-22 15:15:00,47.9,39.3,29.50,WNW,285,1.0,4.0,72,0.00,,,0.39,WeatherCatV1.13B119,2013-02-22 23:15:00,
2013-02-22 15:20:00,47.9,40.0,29.50,SW,225,4.0,4.0,74,0.00,,,0.39,WeatherCatV1.13B119,2013-02-22 23:20:00,
2013-02-22 15:25:00,47.8,40.6,29.50,West,269,2.0,3.0,76,0.00,,,0.39,WeatherCatV1.13B119,2013-02-22 23:25:00,
2013-02-22 15:30:00,47.6,39.4,29.50,WNW,284,0.0,6.0,73,0.00,,,0.39,WeatherCatV1.13B119,2013-02-22 23:30:00,
2013-02-22 15:35:00,47.3,39.8,29.50,WSW,246,2.0,3.0,75,0.00,,,0.39,WeatherCatV1.13B119,2013-02-22 23:35:00,
2013-02-22 15:40:00,47.1,38.9,29.50,NW,314,8.0,8.0,73,0.00,,,0.39,WeatherCatV1.13B119,2013-02-22 23:40:00,
2013-02-22 15:45:00,46.9,37.3,29.50,NW,319,2.0,9.0,69,0.00,,,0.39,WeatherCatV1.13B119,2013-02-22 23:45:00,
2013-02-22 15:50:00,47.1,38.2,29.51,NW,309,1.0,6.0,71,0.00,,,0.39,WeatherCatV1.13B119,2013-02-22 23:50:00,
2013-02-22 15:55:00,47.7,38.4,29.51,WNW,293,6.0,6.0,70,0.00,,,0.39,WeatherCatV1.13B119,2013-02-22 23:55:00,
2013-02-22 16:00:00,47.4,36.6,29.51,NW,315,4.0,10.0,66,0.00,,,0.39,WeatherCatV1.13B119,2013-02-23 00:00:00,
2013-02-22 16:05:00,47.1,35.9,29.52,WSW,252,1.0,7.0,65,0.00,,,0.39,WeatherCatV1.13B119,2013-02-23 00:05:00,
2013-02-22 16:10:00,46.8,36.0,29.51,SW,235,6.0,10.0,66,0.00,,,0.39,WeatherCatV1.13B119,2013-02-23 00:10:00,
2013-02-22 16:15:00,46.4,36.4,29.52,NW,306,7.0,9.0,68,0.00,,,0.39,WeatherCatV1.13B119,2013-02-23 00:15:00,
2013-02-22 16:20:00,46.1,35.8,29.52,WNW,297,7.0,10.0,67,0.00,,,0.39,WeatherCatV1.13B119,2013-02-23 00:20:00,
2013-02-22 16:25:00,45.6,34.5,29.52,WNW,283,5.0,13.0,65,0.00,,,0.39,WeatherCatV1.13B119,2013-02-23 00:25:00,
2013-02-22 16:30:00,45.1,35.5,29.52,WSW,253,5.0,12.0,69,0.00,,,0.39,WeatherCatV1.13B119,2013-02-23 00:30:00,
2013-02-22 16:35:00,44.4,35.2,29.52,WSW,245,3.0,11.0,70,0.00,,,0.39,WeatherCatV1.13B119,2013-02-23 00:35:00,
2013-02-22 16:40:00,43.9,35.5,29.52,WSW,242,3.0,7.0,72,0.00,,,0.39,WeatherCatV1.13B119,2013-02-23 00:40:00,
2013-02-22 16:45:00,43.5,36.1,29.52,West,270,3.0,8.0,75,0.00,,,0.39,WeatherCatV1.13B119,2013-02-23 00:45:00,
2013-02-22 16:50:00,43.4,36.7,29.52,WSW,238,5.0,8.0,77,0.00,,,0.39,WeatherCatV1.13B119,2013-02-23 00:50:00,
2013-02-22 16:55:00,43.4,36.7,29.53,SW,218,0.0,1.0,77,0.00,,,0.39,WeatherCatV1.13B119,2013-02-23 00:55:00,
2013-02-22 17:00:00,43.5,36.1,29.53,ESE,123,2.0,4.0,75,0.00,,,0.39,WeatherCatV1.13B119,2013-02-23 01:00:00,
2013-02-22 17:05:00,43.5,35.8,29.54,ENE,70,0.0,0.0,74,0.00,,,0.39,WeatherCatV1.13B119,2013-02-23 01:05:00,
2013-02-22 17:10:00,43.4,36.0,29.54,ENE,71,6.0,6.0,75,0.00,,,0.39,WeatherCatV1.13B119,2013-02-23 01:10:00,
2013-02-22 17:15:00,43.3,35.6,29.55,NE,53,0.0,0.0,74,0.00,,,0.39,WeatherCatV1.13B119,2013-02-23 01:15:00,
2013-02-22 17:20:00,43.1,36.1,29.55,ESE,104,0.0,1.0,76,0.00,,,0.39,WeatherCatV1.13B119,2013-02-23 01:20:00,
2013-02-22 17:25:00,43.0,35.6,29.55,ENE,68,1.0,3.0,75,0.00,,,0.39,WeatherCatV1.13B119,2013-02-23 01:25:00,
2013-02-22 17:30:00,43.1,35.0,29.55,WSW,253,0.0,1.0,73,0.00,,,0.39,WeatherCatV1.13B119,2013-02-23 01:30:00,
2013-02-22 17:35:00,43.1,35.0,29.56,NW,305,1.0,8.0,73,0.00,,,0.39,WeatherCatV1.13B119,2013-02-23 01:35:00,
2013-02-22 17:40:00,43.1,34.7,29.56,ENE,70,1.0,1.0,72,0.00,,,0.39,WeatherCatV1.13B119,2013-02-23 01:40:00,
2013-02-22 17:45:00,43.1,34.3,29.56,WNW,291,1.0,2.0,71,0.00,,,0.39,WeatherCatV1.13B119,2013-02-23 01:45:00,
2013-02-22 17:50:00,43.1,34.3,29.56,NW,314,0.0,2.0,71,0.00,,,0.39,WeatherCatV1.13B119,2013-02-23 01:50:00,
2013-02-22 17:55:00,42.9,34.9,29.56,NW,323,0.0,3.0,73,0.00,,,0.39,WeatherCatV1.13B119,2013-02-23 01:55:00,
2013-02-22 18:00:00,42.7,34.7,29.57,NNW,333,3.0,5.0,73,0.00,,,0.39,WeatherCatV1.13B119,2013-02-23 02:00:00,
2013-02-22 18:05:00,42.7,34.3,29.57,West,266,0.0,5.0,72,0.00,,,0.39,WeatherCatV1.13B119,2013-02-23 02:05:00,
2013-02-22 18:10:00,42.8,33.7,29.57,NNW,327,9.0,12.0,70,0.00,,,0.39,WeatherCatV1.13B119,2013-02-23 02:10:00,
2013-02-22 18:15:00,43.1,33.6,29.57,WNW,295,8.0,16.0,69,0.00,,,0.39,WeatherCatV1.13B119,2013-02-23 02:15:00,
2013-02-22 18:20:00,43.1,33.3,29.57,NNW,329,8.0,16.0,68,0.00,,,0.39,WeatherCatV1.13B119,2013-02-23 02:20:00,
2013-02-22 18:25:00,43.4,32.4,29.58,NNW,331,7.0,17.0,65,0.00,,,0.39,WeatherCatV1.13B119,2013-02-23 02:25:00,
2013-02-22 18:30:00,43.6,32.6,29.57,WNW,300,11.0,20.0,65,0.00,,,0.39,WeatherCatV1.13B119,2013-02-23 02:30:00,
2013-02-22 18:35:00,43.3,33.1,29.58,NW,318,13.0,13.0,67,0.00,,,0.39,WeatherCatV1.13B119,2013-02-23 02:35:00,
2013-02-22 18:40:00,43.1,33.3,29.58,NW,325,11.0,14.0,68,0.00,,,0.39,WeatherCatV1.13B119,2013-02-23 02:40:00,
2013-02-22 18:45:00,42.9,33.4,29.58,NNW,331,7.0,9.0,69,0.00,,,0.39,WeatherCatV1.13B119,2013-02-23 02:45:00,
2013-02-22 18:50:00,42.7,33.6,29.58,NNW,331,8.0,9.0,70,0.00,,,0.39,WeatherCatV1.13B119,2013-02-23 02:50:00,
2013-02-22 18:55:00,42.5,33.8,29.58,NW,324,4.0,6.0,71,0.00,,,0.39,WeatherCatV1.13B119,2013-02-23 02:55:00,
2013-02-22 19:00:00,42.4,33.7,29.59,NNW,328,1.0,4.0,71,0.00,,,0.39,WeatherCatV1.13B119,2013-02-23 03:00:00,
2013-02-22 19:05:00,42.3,33.6,29.59,NNW,335,0.0,3.0,71,0.00,,,0.39,WeatherCatV1.13B119,2013-02-23 03:05:00,
2013-02-22 19:10:00,42.0,34.0,29.59,ENE,70,0.0,0.0,73,0.00,,,0.39,WeatherCatV1.13B119,2013-02-23 03:10:00,
2013-02-22 19:15:00,41.7,33.7,29.59,NNW,338,1.0,4.0,73,0.00,,,0.39,WeatherCatV1.13B119,2013-02-23 03:15:00,
2013-02-22 19:20:00,41.8,33.4,29.59,NW,307,4.0,8.0,72,0.00,,,0.39,WeatherCatV1.13B119,2013-02-23 03:20:00,
2013-02-22 19:25:00,41.8,33.4,29.59,NNW,327,8.0,8.0,72,0.00,,,0.39,WeatherCatV1.13B119,2013-02-23 03:25:00,
2013-02-22 19:30:00,41.8,33.1,29.60,NW,319,7.0,9.0,71,0.00,,,0.39,WeatherCatV1.13B119,2013-02-23 03:30:00,
2013-02-22 19:35:00,41.9,32.8,29.60,NNW,333,2.0,8.0,70,0.00,,,0.39,WeatherCatV1.13B119,2013-02-23 03:35:00,
2013-02-22 19:40:00,42.0,32.9,29.61,NW,325,3.0,3.0,70,0.00,,,0.39,WeatherCatV1.13B119,2013-02-23 03:40:00,
2013-02-22 19:45:00,41.7,32.6,29.61,NNW,335,0.0,5.0,70,0.00,,,0.39,WeatherCatV1.13B119,2013-02-23 03:45:00,
2013-02-22 19:50:00,41.8,32.4,29.61,NNW,327,7.0,13.0,69,0.00,,,0.39,WeatherCatV1.13B119,2013-02-23 03:50:00,
2013-02-22 19:55:00,42.0,32.9,29.62,NNW,329,5.0,7.0,70,0.00,,,0.39,WeatherCatV1.13B119,2013-02-23 03:55:00,
2013-02-22 20:00:00,42.0,32.9,29.62,WNW,297,4.0,8.0,70,0.00,,,0.39,WeatherCatV1.13B119,2013-02-23 04:00:00,
2013-02-22 20:05:00,42.1,33.0,29.62,NNW,330,0.0,6.0,70,0.00,,,0.39,WeatherCatV1.13B119,2013-02-23 04:05:00,
2013-02-22 20:10:00,42.0,32.9,29.62,West,278,0.0,3.0,70,0.00,,,0.39,WeatherCatV1.13B119,2013-02-23 04:10:00,
2013-02-22 20:15:00,41.9,33.2,29.62,NW,311,2.0,7.0,71,0.00,,,0.39,WeatherCatV1.13B119,2013-02-23 04:15:00,
2013-02-22 20:20:00,41.8,33.4,29.62,NNW,333,0.0,4.0,72,0.00,,,0.39,WeatherCatV1.13B119,2013-02-23 04:20:00,
2013-02-22 20:25:00,41.5,33.5,29.62,North,351,0.0,0.0,73,0.00,,,0.39,WeatherCatV1.13B119,2013-02-23 04:25:00,
2013-02-22 20:30:00,41.2,33.2,29.62,WSW,255,0.0,0.0,73,0.00,,,0.39,WeatherCatV1.13B119,2013-02-23 04:30:00,
2013-02-22 20:35:00,40.9,32.9,29.63,WSW,255,0.0,0.0,73,0.00,,,0.39,WeatherCatV1.13B119,2013-02-23 04:35:00,
2013-02-22 20:40:00,40.4,33.1,29.63,NNW,340,0.0,0.0,75,0.00,,,0.39,WeatherCatV1.13B119,2013-02-23 04:40:00,
2013-02-22 20:45:00,39.9,33.0,29.63,WSW,253,0.0,1.0,76,0.00,,,0.39,WeatherCatV1.13B119,2013-02-23 04:45:00,
2013-02-22 20:50:00,39.8,32.9,29.63,ENE,57,0.0,0.0,76,0.00,,,0.39,WeatherCatV1.13B119,2013-02-23 04:50:00,
2013-02-22 20:55:00,39.7,33.1,29.64,NW,310,0.0,1.0,77,0.00,,,0.39,WeatherCatV1.13B119,2013-02-23 04:55:00,
2013-02-22 21:00:00,39.5,32.9,29.64,NNW,330,0.0,3.0,77,0.00,,,0.39,WeatherCatV1.13B119,2013-02-23 05:00:00,
2013-02-22 21:05:00,39.7,33.1,29.64,NNW,330,1.0,4.0,77,0.00,,,0.39,WeatherCatV1.13B119,2013-02-23 05:05:00,
2013-02-22 21:10:00,40.0,33.4,29.65,NNW,335,1.0,3.0,77,0.00,,,0.39,WeatherCatV1.13B119,2013-02-23 05:10:00,
2013-02-22 21:15:00,39.9,33.0,29.65,NNW,327,0.0,3.0,76,0.00,,,0.39,WeatherCatV1.13B119,2013-02-23 05:15:00,
2013-02-22 21:20:00,40.3,33.0,29.64,NW,325,6.0,6.0,75,0.00,,,0.39,WeatherCatV1.13B119,2013-02-23 05:20:00,
2013-02-22 21:25:00,40.6,33.3,29.65,NW,325,1.0,7.0,75,0.00,,,0.39,WeatherCatV1.13B119,2013-02-23 05:25:00,
2013-02-22 21:30:00,40.6,33.3,29.65,WNW,283,1.0,4.0,75,0.00,,,0.39,WeatherCatV1.13B119,2013-02-23 05:30:00,
2013-02-22 21:35:00,40.6,33.3,29.65,NNW,328,2.0,5.0,75,0.00,,,0.39,WeatherCatV1.13B119,2013-02-23 05:35:00,
2013-02-22 21:40:00,40.7,33.4,29.66,NNW,348,3.0,5.0,75,0.00,,,0.39,WeatherCatV1.13B119,2013-02-23 05:40:00,
2013-02-22 21:45:00,40.6,33.3,29.67,NNW,340,0.0,1.0,75,0.00,,,0.39,WeatherCatV1.13B119,2013-02-23 05:45:00,
2013-02-22 21:50:00,39.6,34.3,29.67,NW,316,0.0,2.0,81,0.00,,,0.39,WeatherCatV1.13B119,2013-02-23 05:50:00,
2013-02-22 21:55:00,38.8,34.1,29.67,ENE,77,0.0,1.0,83,0.00,,,0.39,WeatherCatV1.13B119,2013-02-23 05:55:00,
2013-02-22 22:00:00,38.5,33.8,29.68,North,6,0.0,1.0,83,0.00,,,0.39,WeatherCatV1.13B119,2013-02-23 06:00:00,
2013-02-22 22:02:00,38.1,33.7,29.68,WNW,287,0.0,1.0,84,0.00,,,0.39,WeatherCatV1.13B119,2013-02-23 06:02:00,
2013-02-22 22:07:00,37.5,33.4,29.68,NNW,333,0.0,0.0,85,0.00,,,0.39,WeatherCatV1.13B119,2013-02-23 06:07:00,
2013-02-22 22:12:00,37.1,33.0,29.68,NNW,335,0.0,1.0,85,0.00,,,0.39,WeatherCatV1.13B119,2013-02-23 06:12:00,
2013-02-22 22:17:00,37.0,32.9,29.69,East,95,0.0,1.0,85,0.00,,,0.39,WeatherCatV1.13B119,2013-02-23 06:17:00,
2013-02-22 22:22:00,36.8,33.0,29.69,NE,49,0.0,0.0,86,0.00,,,0.39,WeatherCatV1.13B119,2013-02-23 06:22:00,
2013-02-22 22:27:00,36.5,33.0,29.69,ENE,58,0.0,1.0,87,0.00,,,0.39,WeatherCatV1.13B119,2013-02-23 06:27:00,
2013-02-22 22:32:00,36.3,33.1,29.69,WNW,285,0.0,1.0,88,0.00,,,0.39,WeatherCatV1.13B119,2013-02-23 06:32:00,
2013-02-22 22:37:00,36.1,33.2,29.70,NW,314,0.0,1.0,89,0.00,,,0.39,WeatherCatV1.13B119,2013-02-23 06:37:00,
2013-02-22 22:42:00,36.1,33.5,29.69,North,359,1.0,2.0,90,0.00,,,0.39,WeatherCatV1.13B119,2013-02-23 06:42:00,
2013-02-22 22:47:00,36.1,33.5,29.69,ESE,106,0.0,1.0,90,0.00,,,0.39,WeatherCatV1.13B119,2013-02-23 06:47:00,
2013-02-22 22:52:00,36.1,33.2,29.70,NW,314,0.0,1.0,89,0.00,,,0.39,WeatherCatV1.13B119,2013-02-23 06:52:00,
2013-02-22 22:57:00,35.9,33.0,29.70,North,6,0.0,1.0,89,0.00,,,0.39,WeatherCatV1.13B119,2013-02-23 06:57:00,
2013-02-22 23:02:00,35.6,33.0,29.71,North,5,1.0,3.0,90,0.00,,,0.39,WeatherCatV1.13B119,2013-02-23 07:02:00,
2013-02-22 23:07:00,35.7,33.3,29.71,NE,41,0.0,2.0,91,0.00,,,0.39,WeatherCatV1.13B119,2013-02-23 07:07:00,
2013-02-22 23:12:00,35.9,33.3,29.70,NW,305,1.0,2.0,90,0.00,,,0.39,WeatherCatV1.13B119,2013-02-23 07:12:00,
2013-02-22 23:17:00,36.0,32.8,29.71,North,356,0.0,2.0,88,0.00,,,0.39,WeatherCatV1.13B119,2013-02-23 07:17:00,
2013-02-22 23:22:00,36.3,32.8,29.71,West,260,0.0,1.0,87,0.00,,,0.39,WeatherCatV1.13B119,2013-02-23 07:22:00,
2013-02-22 23:27:00,36.1,32.6,29.71,NW,319,0.0,1.0,87,0.00,,,0.39,WeatherCatV1.13B119,2013-02-23 07:27:00,
2013-02-22 23:32:00,36.1,32.6,29.71,NNW,346,0.0,2.0,87,0.00,,,0.39,WeatherCatV1.13B119,2013-02-23 07:32:00,
2013-02-22 23:37:00,36.7,32.6,29.71,NW,314,1.0,4.0,85,0.00,,,0.39,WeatherCatV1.13B119,2013-02-23 07:37:00,
2013-02-22 23:42:00,37.5,32.5,29.71,SSE,155,0.0,1.0,82,0.00,,,0.39,WeatherCatV1.13B119,2013-02-23 07:42:00,
2013-02-22 23:47:00,37.3,32.3,29.72,SSE,166,0.0,0.0,82,0.00,,,0.39,WeatherCatV1.13B119,2013-02-23 07:47:00,
2013-02-22 23:52:00,36.7,32.6,29.72,NNW,327,0.0,0.0,85,0.00,,,0.39,WeatherCatV1.13B119,2013-02-23 07:52:00,
2013-02-22 23:57:00,36.1,32.6,29.72,NNW,348,0.0,1.0,87,0.00,,,0.39,WeatherCatV1.13B119,2013-02-23 07:57:00,